sensor_id;sensor_type;location;lat;lon;timestamp;P1;durP1;ratioP1;P2;durP2;ratioP2
13799;SDS011;6971;50.028;9.258;2023-06-22T00:01:20;12.87;;;11.20;;
13799;SDS011;6971;50.028;9.258;2023-06-22T00:06:22;12.00;;;10.60;;
13799;SDS011;6971;50.028;9.258;2023-06-22T00:11:22;11.40;;;10.40;;
13799;SDS011;6971;50.028;9.258;2023-06-22T00:16:23;12.33;;;11.07;;
13799;SDS011;6971;50.028;9.258;2023-06-22T00:21:23;12.60;;;10.53;;
13799;SDS011;6971;50.028;9.258;2023-06-22T00:26:24;11.70;;;10.60;;
13799;SDS011;6971;50.028;9.258;2023-06-22T00:31:24;11.73;;;10.53;;
13799;SDS011;6971;50.028;9.258;2023-06-22T00:36:25;11.50;;;10.47;;
13799;SDS011;6971;50.028;9.258;2023-06-22T00:41:25;11.87;;;10.73;;
13799;SDS011;6971;50.028;9.258;2023-06-22T00:46:28;12.80;;;11.70;;
13799;SDS011;6971;50.028;9.258;2023-06-22T00:51:28;12.63;;;10.47;;
13799;SDS011;6971;50.028;9.258;2023-06-22T00:56:29;12.67;;;11.40;;
13799;SDS011;6971;50.028;9.258;2023-06-22T01:01:29;12.07;;;10.97;;
13799;SDS011;6971;50.028;9.258;2023-06-22T01:06:33;12.83;;;11.57;;
13799;SDS011;6971;50.028;9.258;2023-06-22T01:11:40;14.80;;;10.93;;
13799;SDS011;6971;50.028;9.258;2023-06-22T01:16:45;11.67;;;10.50;;
13799;SDS011;6971;50.028;9.258;2023-06-22T01:21:48;12.50;;;10.47;;
13799;SDS011;6971;50.028;9.258;2023-06-22T01:31:55;11.47;;;10.37;;
13799;SDS011;6971;50.028;9.258;2023-06-22T01:36:57;12.63;;;11.33;;
13799;SDS011;6971;50.028;9.258;2023-06-22T01:41:59;12.97;;;10.93;;
13799;SDS011;6971;50.028;9.258;2023-06-22T01:47:00;11.67;;;10.67;;
13799;SDS011;6971;50.028;9.258;2023-06-22T01:52:01;12.43;;;10.97;;
13799;SDS011;6971;50.028;9.258;2023-06-22T01:57:02;17.27;;;12.33;;
13799;SDS011;6971;50.028;9.258;2023-06-22T02:02:08;13.33;;;12.00;;
13799;SDS011;6971;50.028;9.258;2023-06-22T02:07:11;15.10;;;12.27;;
13799;SDS011;6971;50.028;9.258;2023-06-22T02:12:16;14.30;;;12.90;;
13799;SDS011;6971;50.028;9.258;2023-06-22T02:17:18;14.70;;;13.27;;
13799;SDS011;6971;50.028;9.258;2023-06-22T02:22:18;15.70;;;14.07;;
13799;SDS011;6971;50.028;9.258;2023-06-22T02:27:18;15.00;;;13.53;;
13799;SDS011;6971;50.028;9.258;2023-06-22T02:32:19;15.40;;;13.80;;
13799;SDS011;6971;50.028;9.258;2023-06-22T02:37:19;15.10;;;13.70;;
13799;SDS011;6971;50.028;9.258;2023-06-22T02:42:19;15.43;;;13.93;;
13799;SDS011;6971;50.028;9.258;2023-06-22T02:47:21;14.77;;;13.20;;
13799;SDS011;6971;50.028;9.258;2023-06-22T02:52:22;14.67;;;13.27;;
13799;SDS011;6971;50.028;9.258;2023-06-22T02:57:22;15.13;;;13.03;;
13799;SDS011;6971;50.028;9.258;2023-06-22T03:02:23;15.10;;;13.70;;
13799;SDS011;6971;50.028;9.258;2023-06-22T03:07:23;15.13;;;13.73;;
13799;SDS011;6971;50.028;9.258;2023-06-22T03:12:23;15.97;;;13.83;;
13799;SDS011;6971;50.028;9.258;2023-06-22T03:17:24;15.30;;;13.73;;
13799;SDS011;6971;50.028;9.258;2023-06-22T03:22:24;15.43;;;13.83;;
13799;SDS011;6971;50.028;9.258;2023-06-22T03:27:25;15.63;;;14.13;;
13799;SDS011;6971;50.028;9.258;2023-06-22T03:32:25;15.43;;;14.10;;
13799;SDS011;6971;50.028;9.258;2023-06-22T03:37:28;15.10;;;13.70;;
13799;SDS011;6971;50.028;9.258;2023-06-22T03:42:29;15.43;;;13.83;;
13799;SDS011;6971;50.028;9.258;2023-06-22T03:47:29;15.50;;;14.00;;
13799;SDS011;6971;50.028;9.258;2023-06-22T03:52:29;14.73;;;13.43;;
13799;SDS011;6971;50.028;9.258;2023-06-22T03:57:30;13.97;;;12.73;;
13799;SDS011;6971;50.028;9.258;2023-06-22T04:02:30;15.23;;;13.83;;
13799;SDS011;6971;50.028;9.258;2023-06-22T04:07:31;15.23;;;13.83;;
13799;SDS011;6971;50.028;9.258;2023-06-22T04:12:32;15.33;;;13.77;;
13799;SDS011;6971;50.028;9.258;2023-06-22T04:17:32;16.23;;;14.07;;
13799;SDS011;6971;50.028;9.258;2023-06-22T04:22:33;15.83;;;14.00;;
13799;SDS011;6971;50.028;9.258;2023-06-22T04:27:33;14.87;;;13.57;;
13799;SDS011;6971;50.028;9.258;2023-06-22T04:32:40;14.97;;;13.47;;
13799;SDS011;6971;50.028;9.258;2023-06-22T04:37:40;14.27;;;12.97;;
13799;SDS011;6971;50.028;9.258;2023-06-22T04:42:41;14.33;;;12.90;;
13799;SDS011;6971;50.028;9.258;2023-06-22T04:47:52;14.50;;;13.10;;
13799;SDS011;6971;50.028;9.258;2023-06-22T04:52:52;14.30;;;12.80;;
13799;SDS011;6971;50.028;9.258;2023-06-22T04:57:52;15.23;;;13.77;;
13799;SDS011;6971;50.028;9.258;2023-06-22T05:02:53;14.67;;;13.27;;
13799;SDS011;6971;50.028;9.258;2023-06-22T05:07:53;14.83;;;13.43;;
13799;SDS011;6971;50.028;9.258;2023-06-22T05:12:59;14.77;;;13.33;;
13799;SDS011;6971;50.028;9.258;2023-06-22T05:18:00;13.77;;;12.43;;
13799;SDS011;6971;50.028;9.258;2023-06-22T05:23:05;14.87;;;13.47;;
13799;SDS011;6971;50.028;9.258;2023-06-22T05:28:05;14.73;;;13.43;;
13799;SDS011;6971;50.028;9.258;2023-06-22T05:33:11;14.77;;;13.37;;
13799;SDS011;6971;50.028;9.258;2023-06-22T05:38:11;14.37;;;12.97;;
13799;SDS011;6971;50.028;9.258;2023-06-22T05:43:11;13.80;;;12.50;;
13799;SDS011;6971;50.028;9.258;2023-06-22T05:48:12;14.33;;;13.00;;
13799;SDS011;6971;50.028;9.258;2023-06-22T05:53:12;14.50;;;13.00;;
13799;SDS011;6971;50.028;9.258;2023-06-22T05:58:13;14.87;;;13.33;;
13799;SDS011;6971;50.028;9.258;2023-06-22T06:03:13;15.40;;;13.90;;
13799;SDS011;6971;50.028;9.258;2023-06-22T06:08:16;15.17;;;13.67;;
13799;SDS011;6971;50.028;9.258;2023-06-22T06:13:17;15.37;;;13.37;;
13799;SDS011;6971;50.028;9.258;2023-06-22T06:18:17;14.73;;;13.40;;
13799;SDS011;6971;50.028;9.258;2023-06-22T06:23:17;14.87;;;13.50;;
13799;SDS011;6971;50.028;9.258;2023-06-22T06:28:18;13.53;;;12.13;;
13799;SDS011;6971;50.028;9.258;2023-06-22T06:33:18;13.40;;;12.10;;
13799;SDS011;6971;50.028;9.258;2023-06-22T06:38:21;13.63;;;12.40;;
13799;SDS011;6971;50.028;9.258;2023-06-22T06:43:21;13.10;;;12.00;;
13799;SDS011;6971;50.028;9.258;2023-06-22T06:48:23;12.30;;;10.97;;
13799;SDS011;6971;50.028;9.258;2023-06-22T06:53:23;13.93;;;11.50;;
13799;SDS011;6971;50.028;9.258;2023-06-22T06:58:23;13.53;;;12.20;;
13799;SDS011;6971;50.028;9.258;2023-06-22T07:03:24;11.93;;;10.83;;
13799;SDS011;6971;50.028;9.258;2023-06-22T07:08:24;12.07;;;10.93;;
13799;SDS011;6971;50.028;9.258;2023-06-22T07:13:24;11.80;;;10.80;;
13799;SDS011;6971;50.028;9.258;2023-06-22T07:18:25;12.13;;;10.93;;
13799;SDS011;6971;50.028;9.258;2023-06-22T07:23:27;11.70;;;10.50;;
13799;SDS011;6971;50.028;9.258;2023-06-22T07:28:28;12.30;;;11.23;;
13799;SDS011;6971;50.028;9.258;2023-06-22T07:33:31;11.83;;;10.73;;
13799;SDS011;6971;50.028;9.258;2023-06-22T07:38:31;11.90;;;10.70;;
13799;SDS011;6971;50.028;9.258;2023-06-22T07:43:31;10.63;;;9.67;;
13799;SDS011;6971;50.028;9.258;2023-06-22T07:48:36;12.10;;;10.23;;
13799;SDS011;6971;50.028;9.258;2023-06-22T07:53:37;11.47;;;10.20;;
13799;SDS011;6971;50.028;9.258;2023-06-22T07:58:37;10.10;;;9.30;;
13799;SDS011;6971;50.028;9.258;2023-06-22T08:03:38;10.73;;;9.73;;
13799;SDS011;6971;50.028;9.258;2023-06-22T08:08:39;10.73;;;9.43;;
13799;SDS011;6971;50.028;9.258;2023-06-22T08:13:40;9.33;;;8.43;;
13799;SDS011;6971;50.028;9.258;2023-06-22T08:18:40;11.57;;;10.57;;
13799;SDS011;6971;50.028;9.258;2023-06-22T08:23:40;10.07;;;9.20;;
13799;SDS011;6971;50.028;9.258;2023-06-22T08:28:41;10.17;;;9.20;;
13799;SDS011;6971;50.028;9.258;2023-06-22T08:33:41;10.00;;;9.10;;
13799;SDS011;6971;50.028;9.258;2023-06-22T08:38:43;10.37;;;9.20;;
13799;SDS011;6971;50.028;9.258;2023-06-22T08:43:44;10.30;;;9.37;;
13799;SDS011;6971;50.028;9.258;2023-06-22T08:48:45;9.73;;;8.83;;
13799;SDS011;6971;50.028;9.258;2023-06-22T08:53:45;11.10;;;9.10;;
13799;SDS011;6971;50.028;9.258;2023-06-22T08:58:45;10.30;;;9.40;;
13799;SDS011;6971;50.028;9.258;2023-06-22T09:03:46;10.33;;;9.50;;
13799;SDS011;6971;50.028;9.258;2023-06-22T09:08:54;11.23;;;9.60;;
13799;SDS011;6971;50.028;9.258;2023-06-22T09:13:54;13.03;;;10.30;;
13799;SDS011;6971;50.028;9.258;2023-06-22T09:18:54;10.93;;;9.80;;
13799;SDS011;6971;50.028;9.258;2023-06-22T09:23:55;10.93;;;9.83;;
13799;SDS011;6971;50.028;9.258;2023-06-22T09:28:55;11.13;;;10.03;;
13799;SDS011;6971;50.028;9.258;2023-06-22T09:33:55;11.50;;;10.40;;
13799;SDS011;6971;50.028;9.258;2023-06-22T09:38:56;9.83;;;8.93;;
13799;SDS011;6971;50.028;9.258;2023-06-22T09:43:58;11.23;;;10.23;;
13799;SDS011;6971;50.028;9.258;2023-06-22T09:48:58;11.00;;;9.17;;
13799;SDS011;6971;50.028;9.258;2023-06-22T09:53:59;9.73;;;8.73;;
13799;SDS011;6971;50.028;9.258;2023-06-22T09:58:59;11.07;;;10.00;;
13799;SDS011;6971;50.028;9.258;2023-06-22T10:04:02;10.37;;;9.27;;
13799;SDS011;6971;50.028;9.258;2023-06-22T10:09:02;10.30;;;9.30;;
13799;SDS011;6971;50.028;9.258;2023-06-22T10:14:03;10.73;;;9.63;;
13799;SDS011;6971;50.028;9.258;2023-06-22T10:19:04;11.33;;;10.13;;
13799;SDS011;6971;50.028;9.258;2023-06-22T10:24:04;11.17;;;8.73;;
13799;SDS011;6971;50.028;9.258;2023-06-22T10:29:08;10.60;;;9.50;;
13799;SDS011;6971;50.028;9.258;2023-06-22T10:34:08;10.33;;;9.33;;
13799;SDS011;6971;50.028;9.258;2023-06-22T10:39:09;10.00;;;9.10;;
13799;SDS011;6971;50.028;9.258;2023-06-22T10:44:09;10.13;;;9.00;;
13799;SDS011;6971;50.028;9.258;2023-06-22T10:49:10;11.30;;;9.60;;
13799;SDS011;6971;50.028;9.258;2023-06-22T10:54:10;11.23;;;10.03;;
13799;SDS011;6971;50.028;9.258;2023-06-22T10:59:13;9.83;;;8.93;;
13799;SDS011;6971;50.028;9.258;2023-06-22T11:04:14;11.93;;;8.53;;
13799;SDS011;6971;50.028;9.258;2023-06-22T11:09:14;9.97;;;9.07;;
13799;SDS011;6971;50.028;9.258;2023-06-22T11:14:20;11.63;;;9.00;;
13799;SDS011;6971;50.028;9.258;2023-06-22T11:19:21;11.07;;;9.93;;
13799;SDS011;6971;50.028;9.258;2023-06-22T11:24:22;11.37;;;9.97;;
13799;SDS011;6971;50.028;9.258;2023-06-22T11:29:22;11.10;;;10.00;;
13799;SDS011;6971;50.028;9.258;2023-06-22T11:34:22;12.10;;;10.00;;
13799;SDS011;6971;50.028;9.258;2023-06-22T11:39:23;10.70;;;9.70;;
13799;SDS011;6971;50.028;9.258;2023-06-22T11:44:23;11.53;;;10.17;;
13799;SDS011;6971;50.028;9.258;2023-06-22T11:49:23;11.87;;;10.67;;
13799;SDS011;6971;50.028;9.258;2023-06-22T11:54:24;12.67;;;10.37;;
13799;SDS011;6971;50.028;9.258;2023-06-22T11:59:24;14.80;;;10.23;;
13799;SDS011;6971;50.028;9.258;2023-06-22T12:04:24;12.23;;;10.53;;
13799;SDS011;6971;50.028;9.258;2023-06-22T12:09:25;11.37;;;10.27;;
13799;SDS011;6971;50.028;9.258;2023-06-22T12:14:25;12.13;;;11.03;;
13799;SDS011;6971;50.028;9.258;2023-06-22T12:19:25;11.30;;;10.17;;
13799;SDS011;6971;50.028;9.258;2023-06-22T12:24:26;13.77;;;10.10;;
13799;SDS011;6971;50.028;9.258;2023-06-22T12:29:26;11.40;;;9.03;;
13799;SDS011;6971;50.028;9.258;2023-06-22T12:34:27;12.17;;;9.50;;
13799;SDS011;6971;50.028;9.258;2023-06-22T12:39:27;10.30;;;8.90;;
13799;SDS011;6971;50.028;9.258;2023-06-22T12:44:27;11.43;;;9.45;;
13799;SDS011;6971;50.028;9.258;2023-06-22T12:49:28;13.27;;;8.47;;
13799;SDS011;6971;50.028;9.258;2023-06-22T12:54:28;14.07;;;8.27;;
13799;SDS011;6971;50.028;9.258;2023-06-22T12:59:32;10.37;;;8.10;;
13799;SDS011;6971;50.028;9.258;2023-06-22T13:04:32;10.60;;;8.33;;
13799;SDS011;6971;50.028;9.258;2023-06-22T13:09:32;10.50;;;7.63;;
13799;SDS011;6971;50.028;9.258;2023-06-22T13:14:34;8.93;;;7.97;;
13799;SDS011;6971;50.028;9.258;2023-06-22T13:19:35;12.10;;;8.47;;
13799;SDS011;6971;50.028;9.258;2023-06-22T13:24:35;14.30;;;7.60;;
13799;SDS011;6971;50.028;9.258;2023-06-22T13:29:35;11.53;;;7.67;;
13799;SDS011;6971;50.028;9.258;2023-06-22T13:34:36;11.90;;;7.50;;
13799;SDS011;6971;50.028;9.258;2023-06-22T13:39:36;12.93;;;8.13;;
13799;SDS011;6971;50.028;9.258;2023-06-22T13:44:37;9.00;;;7.37;;
13799;SDS011;6971;50.028;9.258;2023-06-22T13:49:37;11.17;;;7.57;;
13799;SDS011;6971;50.028;9.258;2023-06-22T13:54:37;10.73;;;7.33;;
13799;SDS011;6971;50.028;9.258;2023-06-22T13:59:38;8.87;;;7.00;;
13799;SDS011;6971;50.028;9.258;2023-06-22T14:04:38;10.67;;;7.10;;
13799;SDS011;6971;50.028;9.258;2023-06-22T14:09:39;13.87;;;7.93;;
13799;SDS011;6971;50.028;9.258;2023-06-22T14:14:39;13.23;;;7.87;;
13799;SDS011;6971;50.028;9.258;2023-06-22T14:19:39;10.33;;;7.47;;
13799;SDS011;6971;50.028;9.258;2023-06-22T14:24:40;9.20;;;6.77;;
13799;SDS011;6971;50.028;9.258;2023-06-22T14:29:40;9.40;;;6.23;;
13799;SDS011;6971;50.028;9.258;2023-06-22T14:34:40;11.43;;;7.17;;
13799;SDS011;6971;50.028;9.258;2023-06-22T14:39:41;9.73;;;6.73;;
13799;SDS011;6971;50.028;9.258;2023-06-22T14:44:41;12.97;;;7.77;;
13799;SDS011;6971;50.028;9.258;2023-06-22T14:49:44;10.53;;;6.80;;
13799;SDS011;6971;50.028;9.258;2023-06-22T14:54:45;10.27;;;7.03;;
13799;SDS011;6971;50.028;9.258;2023-06-22T14:59:46;12.53;;;6.57;;
13799;SDS011;6971;50.028;9.258;2023-06-22T15:04:47;9.53;;;6.47;;
13799;SDS011;6971;50.028;9.258;2023-06-22T15:09:47;14.47;;;6.73;;
13799;SDS011;6971;50.028;9.258;2023-06-22T15:14:48;14.60;;;6.50;;
13799;SDS011;6971;50.028;9.258;2023-06-22T15:19:48;13.20;;;5.90;;
13799;SDS011;6971;50.028;9.258;2023-06-22T15:24:48;12.33;;;7.00;;
13799;SDS011;6971;50.028;9.258;2023-06-22T15:29:49;12.50;;;7.03;;
13799;SDS011;6971;50.028;9.258;2023-06-22T15:34:49;13.07;;;7.47;;
13799;SDS011;6971;50.028;9.258;2023-06-22T15:39:53;9.87;;;6.87;;
13799;SDS011;6971;50.028;9.258;2023-06-22T15:44:55;13.13;;;6.97;;
13799;SDS011;6971;50.028;9.258;2023-06-22T15:49:56;11.50;;;7.10;;
13799;SDS011;6971;50.028;9.258;2023-06-22T15:54:56;12.50;;;6.90;;
13799;SDS011;6971;50.028;9.258;2023-06-22T16:00:00;14.43;;;6.97;;
13799;SDS011;6971;50.028;9.258;2023-06-22T16:05:01;13.23;;;7.30;;
13799;SDS011;6971;50.028;9.258;2023-06-22T16:10:02;9.53;;;6.87;;
13799;SDS011;6971;50.028;9.258;2023-06-22T16:15:03;13.23;;;6.67;;
13799;SDS011;6971;50.028;9.258;2023-06-22T16:20:04;14.13;;;7.67;;
13799;SDS011;6971;50.028;9.258;2023-06-22T16:25:06;11.30;;;6.87;;
13799;SDS011;6971;50.028;9.258;2023-06-22T16:30:07;10.03;;;6.97;;
13799;SDS011;6971;50.028;9.258;2023-06-22T16:35:08;9.83;;;6.30;;
13799;SDS011;6971;50.028;9.258;2023-06-22T16:40:09;13.23;;;6.43;;
13799;SDS011;6971;50.028;9.258;2023-06-22T16:45:13;13.80;;;6.57;;
13799;SDS011;6971;50.028;9.258;2023-06-22T16:50:15;13.03;;;6.00;;
13799;SDS011;6971;50.028;9.258;2023-06-22T16:55:16;14.60;;;6.70;;
13799;SDS011;6971;50.028;9.258;2023-06-22T17:00:20;16.57;;;6.90;;
13799;SDS011;6971;50.028;9.258;2023-06-22T17:05:21;11.60;;;5.97;;
13799;SDS011;6971;50.028;9.258;2023-06-22T17:10:22;11.27;;;5.93;;
13799;SDS011;6971;50.028;9.258;2023-06-22T17:15:23;15.03;;;8.23;;
13799;SDS011;6971;50.028;9.258;2023-06-22T17:20:24;21.00;;;8.47;;
13799;SDS011;6971;50.028;9.258;2023-06-22T17:25:28;19.97;;;11.17;;
13799;SDS011;6971;50.028;9.258;2023-06-22T17:30:32;10.40;;;6.50;;
13799;SDS011;6971;50.028;9.258;2023-06-22T17:35:32;12.40;;;6.83;;
13799;SDS011;6971;50.028;9.258;2023-06-22T17:40:45;13.40;;;6.43;;
13799;SDS011;6971;50.028;9.258;2023-06-22T17:45:45;13.53;;;6.43;;
13799;SDS011;6971;50.028;9.258;2023-06-22T17:50:45;10.57;;;6.10;;
13799;SDS011;6971;50.028;9.258;2023-06-22T17:55:46;10.63;;;6.03;;
13799;SDS011;6971;50.028;9.258;2023-06-22T18:00:47;13.98;;;6.63;;
13799;SDS011;6971;50.028;9.258;2023-06-22T18:05:47;11.90;;;6.47;;
13799;SDS011;6971;50.028;9.258;2023-06-22T18:10:48;13.30;;;6.37;;
13799;SDS011;6971;50.028;9.258;2023-06-22T18:15:49;11.63;;;5.83;;
13799;SDS011;6971;50.028;9.258;2023-06-22T18:20:51;14.90;;;6.23;;
13799;SDS011;6971;50.028;9.258;2023-06-22T18:25:52;12.00;;;5.40;;
13799;SDS011;6971;50.028;9.258;2023-06-22T18:30:53;10.77;;;5.67;;
13799;SDS011;6971;50.028;9.258;2023-06-22T18:35:53;13.77;;;5.23;;
13799;SDS011;6971;50.028;9.258;2023-06-22T18:40:56;13.77;;;5.27;;
13799;SDS011;6971;50.028;9.258;2023-06-22T18:46:02;12.27;;;5.73;;
13799;SDS011;6971;50.028;9.258;2023-06-22T18:51:29;9.43;;;5.57;;
13799;SDS011;6971;50.028;9.258;2023-06-22T18:56:29;14.30;;;5.80;;
13799;SDS011;6971;50.028;9.258;2023-06-22T19:01:30;12.20;;;6.37;;
13799;SDS011;6971;50.028;9.258;2023-06-22T19:11:49;10.90;;;5.90;;
13799;SDS011;6971;50.028;9.258;2023-06-22T19:16:59;15.20;;;6.27;;
13799;SDS011;6971;50.028;9.258;2023-06-22T19:22:00;10.80;;;5.70;;
13799;SDS011;6971;50.028;9.258;2023-06-22T19:27:00;8.60;;;6.53;;
13799;SDS011;6971;50.028;9.258;2023-06-22T19:32:01;11.37;;;6.83;;
13799;SDS011;6971;50.028;9.258;2023-06-22T19:37:03;9.47;;;6.03;;
13799;SDS011;6971;50.028;9.258;2023-06-22T19:42:13;11.27;;;6.77;;
13799;SDS011;6971;50.028;9.258;2023-06-22T19:47:13;13.87;;;5.97;;
13799;SDS011;6971;50.028;9.258;2023-06-22T19:52:15;9.20;;;5.43;;
13799;SDS011;6971;50.028;9.258;2023-06-22T19:57:15;9.27;;;5.63;;
13799;SDS011;6971;50.028;9.258;2023-06-22T20:02:15;9.77;;;5.38;;
13799;SDS011;6971;50.028;9.258;2023-06-22T20:07:16;9.87;;;5.40;;
13799;SDS011;6971;50.028;9.258;2023-06-22T20:12:23;9.97;;;5.60;;
13799;SDS011;6971;50.028;9.258;2023-06-22T20:17:28;12.20;;;6.17;;
13799;SDS011;6971;50.028;9.258;2023-06-22T20:22:40;9.03;;;5.40;;
13799;SDS011;6971;50.028;9.258;2023-06-22T20:27:41;9.53;;;4.40;;
13799;SDS011;6971;50.028;9.258;2023-06-22T20:32:49;8.93;;;4.37;;
13799;SDS011;6971;50.028;9.258;2023-06-22T20:37:51;11.80;;;4.80;;
13799;SDS011;6971;50.028;9.258;2023-06-22T20:42:55;7.67;;;4.10;;
13799;SDS011;6971;50.028;9.258;2023-06-22T20:47:57;7.30;;;4.07;;
13799;SDS011;6971;50.028;9.258;2023-06-22T20:53:01;9.57;;;4.00;;
13799;SDS011;6971;50.028;9.258;2023-06-22T20:58:04;6.80;;;3.50;;
13799;SDS011;6971;50.028;9.258;2023-06-22T21:03:08;8.50;;;4.13;;
13799;SDS011;6971;50.028;9.258;2023-06-22T21:08:10;7.37;;;3.47;;
13799;SDS011;6971;50.028;9.258;2023-06-22T21:13:11;5.50;;;2.73;;
13799;SDS011;6971;50.028;9.258;2023-06-22T21:18:11;5.30;;;2.33;;
13799;SDS011;6971;50.028;9.258;2023-06-22T21:23:11;5.70;;;2.70;;
13799;SDS011;6971;50.028;9.258;2023-06-22T21:28:12;7.03;;;2.33;;
13799;SDS011;6971;50.028;9.258;2023-06-22T21:33:12;6.03;;;1.50;;
13799;SDS011;6971;50.028;9.258;2023-06-22T21:38:13;3.53;;;1.40;;
13799;SDS011;6971;50.028;9.258;2023-06-22T21:43:13;10.13;;;1.50;;
13799;SDS011;6971;50.028;9.258;2023-06-22T21:48:14;1.33;;;1.23;;
13799;SDS011;6971;50.028;9.258;2023-06-22T21:53:14;2.17;;;1.23;;
13799;SDS011;6971;50.028;9.258;2023-06-22T21:58:14;2.10;;;1.30;;
13799;SDS011;6971;50.028;9.258;2023-06-22T22:03:15;5.97;;;1.27;;
13799;SDS011;6971;50.028;9.258;2023-06-22T22:08:15;2.83;;;1.10;;
13799;SDS011;6971;50.028;9.258;2023-06-22T22:13:17;1.00;;;0.90;;
13799;SDS011;6971;50.028;9.258;2023-06-22T22:18:18;3.57;;;1.40;;
13799;SDS011;6971;50.028;9.258;2023-06-22T22:23:18;2.03;;;1.00;;
13799;SDS011;6971;50.028;9.258;2023-06-22T22:28:19;0.90;;;0.90;;
13799;SDS011;6971;50.028;9.258;2023-06-22T22:33:20;1.20;;;0.97;;
13799;SDS011;6971;50.028;9.258;2023-06-22T22:38:21;3.20;;;0.80;;
13799;SDS011;6971;50.028;9.258;2023-06-22T22:43:21;1.87;;;0.90;;
13799;SDS011;6971;50.028;9.258;2023-06-22T22:48:21;1.00;;;0.90;;
13799;SDS011;6971;50.028;9.258;2023-06-22T22:53:22;1.17;;;0.67;;
13799;SDS011;6971;50.028;9.258;2023-06-22T22:58:22;0.60;;;0.60;;
13799;SDS011;6971;50.028;9.258;2023-06-22T23:03:23;1.83;;;0.70;;
13799;SDS011;6971;50.028;9.258;2023-06-22T23:08:23;1.60;;;0.80;;
13799;SDS011;6971;50.028;9.258;2023-06-22T23:13:23;1.87;;;0.70;;
13799;SDS011;6971;50.028;9.258;2023-06-22T23:18:24;2.15;;;1.23;;
13799;SDS011;6971;50.028;9.258;2023-06-22T23:23:24;2.10;;;0.70;;
13799;SDS011;6971;50.028;9.258;2023-06-22T23:28:25;0.93;;;0.80;;
13799;SDS011;6971;50.028;9.258;2023-06-22T23:33:25;2.07;;;0.90;;
13799;SDS011;6971;50.028;9.258;2023-06-22T23:38:28;0.97;;;0.90;;
13799;SDS011;6971;50.028;9.258;2023-06-22T23:43:28;0.80;;;0.80;;
13799;SDS011;6971;50.028;9.258;2023-06-22T23:48:29;1.87;;;0.93;;
13799;SDS011;6971;50.028;9.258;2023-06-22T23:53:29;2.30;;;0.90;;
13799;SDS011;6971;50.028;9.258;2023-06-22T23:58:29;1.33;;;1.20;;
